createdAt,value
2017-10-14T00:00:07.517Z,10.90
2017-10-14T00:02:35.023Z,11.10
2017-10-14T00:05:02.581Z,9.53
2017-10-14T00:07:30.904Z,11.40
2017-10-14T00:09:58.460Z,11.40
2017-10-14T00:12:26.730Z,9.80
2017-10-14T00:14:55.039Z,10.10
2017-10-14T00:17:22.571Z,12.23
2017-10-14T00:19:50.881Z,10.43
2017-10-14T00:22:18.404Z,10.20
2017-10-14T00:24:46.715Z,10.23
2017-10-14T00:27:14.243Z,9.57
2017-10-14T00:29:42.967Z,9.83
2017-10-14T00:32:11.007Z,10.53
2017-10-14T00:34:39.269Z,10.33
2017-10-14T00:37:06.818Z,10.50
2017-10-14T00:39:34.364Z,9.93
2017-10-14T00:42:01.919Z,9.47
2017-10-14T00:44:29.446Z,10.90
2017-10-14T00:46:56.985Z,9.60
2017-10-14T00:49:25.264Z,9.87
2017-10-14T00:51:53.558Z,9.47
2017-10-14T00:54:21.070Z,9.93
2017-10-14T00:56:48.635Z,10.07
2017-10-14T00:59:16.161Z,12.13
2017-10-14T01:01:43.693Z,9.97
2017-10-14T01:04:11.215Z,11.20
2017-10-14T01:06:39.490Z,10.33
2017-10-14T01:09:07.025Z,11.27
2017-10-14T01:11:34.570Z,10.43
2017-10-14T01:14:02.074Z,10.80
2017-10-14T01:16:29.608Z,11.43
2017-10-14T01:18:57.113Z,11.00
2017-10-14T01:21:25.442Z,11.80
2017-10-14T01:23:52.948Z,11.70
2017-10-14T01:26:21.266Z,11.70
2017-10-14T01:28:48.790Z,11.00
2017-10-14T01:31:17.089Z,12.07
2017-10-14T01:33:44.598Z,12.07
2017-10-14T01:36:12.135Z,12.57
2017-10-14T01:38:39.652Z,11.77
2017-10-14T01:41:07.986Z,12.10
2017-10-14T01:43:35.519Z,11.73
2017-10-14T01:46:03.067Z,11.93
2017-10-14T01:48:30.573Z,12.53
2017-10-14T01:50:58.082Z,13.07
2017-10-14T01:53:25.647Z,14.57
2017-10-14T01:55:53.163Z,12.23
2017-10-14T01:58:20.713Z,12.60
2017-10-14T02:00:48.289Z,11.80
2017-10-14T02:03:15.821Z,11.77
2017-10-14T02:05:43.340Z,11.67
2017-10-14T02:08:11.693Z,12.70
2017-10-14T02:10:39.199Z,10.93
2017-10-14T02:13:06.747Z,11.33
2017-10-14T02:15:34.262Z,12.00
2017-10-14T02:18:01.807Z,12.30
2017-10-14T02:20:29.337Z,11.77
2017-10-14T02:22:56.881Z,11.50
2017-10-14T02:25:24.430Z,10.43
2017-10-14T02:27:52.798Z,12.07
2017-10-14T02:30:21.110Z,11.60
2017-10-14T02:32:48.658Z,11.87
2017-10-14T02:35:16.182Z,12.10
2017-10-14T02:37:43.739Z,12.30
2017-10-14T02:40:11.252Z,11.83
2017-10-14T02:42:38.796Z,11.90
2017-10-14T02:45:06.313Z,12.00
2017-10-14T02:47:33.855Z,12.03
2017-10-14T02:50:01.366Z,11.40
2017-10-14T02:52:29.676Z,10.90
2017-10-14T02:54:57.522Z,10.97
2017-10-14T02:57:25.066Z,11.83
2017-10-14T02:59:53.358Z,11.23
2017-10-14T03:02:20.919Z,10.27
2017-10-14T03:04:48.438Z,12.13
2017-10-14T03:07:15.946Z,10.20
2017-10-14T03:09:43.489Z,11.13
2017-10-14T03:12:11.791Z,10.50
2017-10-14T03:14:39.343Z,10.43
2017-10-14T03:17:06.885Z,10.53
2017-10-14T03:19:34.456Z,10.83
2017-10-14T03:22:01.965Z,11.63
2017-10-14T03:24:29.512Z,11.30
2017-10-14T03:26:57.027Z,11.30
2017-10-14T03:29:24.572Z,10.33
2017-10-14T03:31:52.871Z,10.60
2017-10-14T03:34:21.191Z,11.43
2017-10-14T03:36:48.721Z,11.03
2017-10-14T03:39:16.262Z,12.13
2017-10-14T03:41:44.546Z,11.87
2017-10-14T03:44:12.855Z,12.73
2017-10-14T03:46:40.410Z,11.63
2017-10-14T03:49:07.965Z,12.37
2017-10-14T03:51:35.487Z,11.07
2017-10-14T03:54:03.022Z,12.27
2017-10-14T03:56:30.532Z,10.77
2017-10-14T03:58:58.095Z,12.17
2017-10-14T04:01:25.610Z,10.63
2017-10-14T04:03:53.159Z,11.23
2017-10-14T04:06:20.689Z,12.40
2017-10-14T04:08:48.226Z,12.50
2017-10-14T04:11:16.534Z,12.37
2017-10-14T04:13:44.071Z,11.47
2017-10-14T04:16:11.593Z,12.43
2017-10-14T04:18:39.121Z,12.10
2017-10-14T04:21:06.641Z,12.87
2017-10-14T04:23:36.007Z,12.77
2017-10-14T04:26:03.515Z,12.50
2017-10-14T04:28:31.033Z,10.57
2017-10-14T04:30:58.590Z,11.47
2017-10-14T04:33:26.104Z,11.57
2017-10-14T04:35:53.640Z,10.80
2017-10-14T04:38:21.910Z,10.00
2017-10-14T04:40:50.214Z,12.07
2017-10-14T04:43:17.734Z,11.40
2017-10-14T04:45:45.274Z,10.70
2017-10-14T04:48:12.790Z,12.13
2017-10-14T04:50:40.330Z,10.47
2017-10-14T04:53:08.604Z,11.53
2017-10-14T04:55:36.926Z,11.00
2017-10-14T04:58:04.431Z,11.50
2017-10-14T05:00:31.977Z,10.63
2017-10-14T05:02:59.481Z,11.10
2017-10-14T05:05:27.031Z,11.37
2017-10-14T05:07:54.530Z,12.03
2017-10-14T05:10:22.073Z,12.13
2017-10-14T05:12:49.582Z,12.50
2017-10-14T05:15:17.122Z,12.13
2017-10-14T05:17:44.633Z,10.77
2017-10-14T05:20:12.937Z,11.30
2017-10-14T05:22:40.463Z,11.50
2017-10-14T05:25:08.810Z,12.20
2017-10-14T05:27:36.339Z,11.40
2017-10-14T05:30:03.898Z,12.03
2017-10-14T05:32:31.419Z,11.30
2017-10-14T05:34:59.728Z,11.27
2017-10-14T05:37:27.235Z,9.90
2017-10-14T05:39:55.066Z,11.77
2017-10-14T05:42:22.597Z,12.67
2017-10-14T05:44:50.881Z,12.20
2017-10-14T05:47:18.419Z,10.90
2017-10-14T05:49:46.694Z,9.53
2017-10-14T05:52:15.051Z,9.87
2017-10-14T05:54:42.576Z,11.13
2017-10-14T05:57:10.133Z,10.40
2017-10-14T05:59:37.640Z,9.30
2017-10-14T06:02:05.201Z,9.93
2017-10-14T06:04:32.750Z,10.07
2017-10-14T06:07:00.284Z,9.57
2017-10-14T06:09:27.806Z,10.80
2017-10-14T06:11:56.105Z,10.37
2017-10-14T06:14:23.614Z,9.30
2017-10-14T06:16:51.159Z,10.10
2017-10-14T06:19:18.676Z,9.87
2017-10-14T06:21:46.221Z,8.73
2017-10-14T06:24:14.507Z,9.60
2017-10-14T06:26:42.805Z,9.57
2017-10-14T06:29:10.506Z,9.00
2017-10-14T06:31:38.031Z,9.43
2017-10-14T06:34:05.534Z,9.37
2017-10-14T06:36:33.079Z,8.40
2017-10-14T06:39:00.591Z,9.20
2017-10-14T06:41:28.131Z,9.00
2017-10-14T06:43:56.416Z,9.73
2017-10-14T06:46:24.735Z,9.00
2017-10-14T06:48:52.250Z,8.90
2017-10-14T06:51:20.553Z,9.60
2017-10-14T06:53:48.079Z,9.33
2017-10-14T06:56:16.402Z,9.77
2017-10-14T06:58:43.926Z,8.43
2017-10-14T07:01:12.503Z,9.53
2017-10-14T07:03:40.803Z,9.30
2017-10-14T07:06:08.317Z,9.20
2017-10-14T07:08:35.859Z,9.10
2017-10-14T07:11:03.406Z,9.13
2017-10-14T07:13:30.949Z,8.10
2017-10-14T07:15:58.509Z,7.53
2017-10-14T07:18:26.047Z,8.93
2017-10-14T07:20:54.330Z,8.23
2017-10-14T07:23:23.022Z,9.10
2017-10-14T07:25:51.306Z,9.97
2017-10-14T07:28:18.845Z,10.00
2017-10-14T07:30:47.147Z,8.97
2017-10-14T07:33:14.793Z,8.93
2017-10-14T07:35:43.524Z,7.20
2017-10-14T07:38:11.291Z,9.00
2017-10-14T07:40:39.438Z,8.60
2017-10-14T07:43:07.091Z,7.97
2017-10-14T07:45:35.453Z,8.50
2017-10-14T07:48:03.841Z,7.93
2017-10-14T07:50:32.313Z,8.10
2017-10-14T07:52:59.916Z,9.00
2017-10-14T07:55:27.519Z,8.10
2017-10-14T07:57:55.070Z,8.53
2017-10-14T08:00:22.600Z,7.40
2017-10-14T08:02:50.142Z,7.60
2017-10-14T08:05:17.671Z,8.10
2017-10-14T08:07:45.226Z,7.70
2017-10-14T08:10:12.770Z,8.70
2017-10-14T08:12:40.575Z,8.77
2017-10-14T08:15:08.873Z,10.37
2017-10-14T08:17:36.375Z,7.30
2017-10-14T08:20:03.945Z,7.77
2017-10-14T08:22:31.511Z,8.30
2017-10-14T08:24:59.048Z,7.60
2017-10-14T08:27:26.558Z,8.40
2017-10-14T08:29:54.877Z,7.87
2017-10-14T08:32:22.420Z,8.27
2017-10-14T08:34:49.990Z,8.50
2017-10-14T08:37:17.541Z,8.50
2017-10-14T08:39:45.053Z,8.50
2017-10-14T08:42:12.546Z,7.70
2017-10-14T08:44:40.080Z,8.83
2017-10-14T08:47:08.358Z,8.00
2017-10-14T08:49:36.169Z,6.67
2017-10-14T08:52:03.720Z,7.90
2017-10-14T08:54:31.247Z,7.37
2017-10-14T08:56:59.548Z,7.97
2017-10-14T08:59:27.064Z,7.50
2017-10-14T09:01:54.903Z,6.90
2017-10-14T09:04:22.408Z,8.03
2017-10-14T09:06:49.913Z,7.00
2017-10-14T09:09:17.454Z,7.87
2017-10-14T09:11:44.966Z,6.93
2017-10-14T09:14:12.511Z,7.87
2017-10-14T09:16:40.038Z,8.40
2017-10-14T09:19:07.599Z,7.53
2017-10-14T09:21:35.129Z,7.30
2017-10-14T09:24:02.657Z,7.43
2017-10-14T09:26:30.522Z,7.00
2017-10-14T09:28:58.056Z,7.47
2017-10-14T09:31:25.576Z,7.87
2017-10-14T09:33:53.958Z,7.60
2017-10-14T09:36:22.288Z,8.70
2017-10-14T09:38:49.849Z,8.10
2017-10-14T09:41:18.129Z,9.27
2017-10-14T09:43:46.026Z,8.07
2017-10-14T09:46:13.579Z,9.10
2017-10-14T09:48:41.086Z,7.97
2017-10-14T09:51:08.669Z,8.53
2017-10-14T09:53:36.184Z,9.60
2017-10-14T09:56:03.756Z,8.83
2017-10-14T09:58:32.037Z,9.47
2017-10-14T10:01:00.327Z,9.50
2017-10-14T10:03:27.876Z,8.73
2017-10-14T10:05:56.165Z,9.60
2017-10-14T10:08:24.071Z,8.80
2017-10-14T10:10:51.599Z,9.10
2017-10-14T10:13:19.196Z,9.47
2017-10-14T10:15:46.735Z,9.40
2017-10-14T10:18:14.250Z,9.20
2017-10-14T10:20:42.556Z,9.07
2017-10-14T10:23:10.053Z,8.40
2017-10-14T10:25:37.578Z,7.80
2017-10-14T10:28:05.171Z,7.90
2017-10-14T10:30:32.772Z,8.00
2017-10-14T10:33:01.093Z,7.30
2017-10-14T10:35:28.624Z,6.57
2017-10-14T10:37:56.931Z,8.10
2017-10-14T10:40:24.492Z,7.33
2017-10-14T10:42:52.000Z,6.80
2017-10-14T10:45:19.538Z,7.17
2017-10-14T10:47:47.052Z,6.37
2017-10-14T10:50:14.939Z,7.30
2017-10-14T10:52:42.468Z,7.00
2017-10-14T10:55:09.993Z,6.53
2017-10-14T10:57:37.526Z,7.30
2017-10-14T11:00:05.052Z,6.53
2017-10-14T11:02:33.355Z,6.53
2017-10-14T11:05:00.863Z,6.60
2017-10-14T11:07:28.364Z,5.87
2017-10-14T11:09:55.983Z,6.20
2017-10-14T11:12:23.490Z,6.80
2017-10-14T11:14:51.282Z,6.90
2017-10-14T11:17:18.798Z,6.30
2017-10-14T11:19:46.339Z,5.90
2017-10-14T11:22:14.671Z,7.20
2017-10-14T11:24:42.196Z,5.57
2017-10-14T11:27:09.798Z,5.27
2017-10-14T11:29:37.309Z,5.60
2017-10-14T11:32:05.613Z,5.10
2017-10-14T11:34:33.159Z,5.17
2017-10-14T11:37:00.663Z,5.30
2017-10-14T11:39:28.212Z,4.53
2017-10-14T11:41:55.742Z,4.10
2017-10-14T11:44:23.261Z,3.80
2017-10-14T11:46:50.811Z,4.37
2017-10-14T11:49:18.332Z,4.10
2017-10-14T11:51:45.877Z,3.80
2017-10-14T11:54:13.405Z,3.40
2017-10-14T11:56:40.911Z,2.80
2017-10-14T11:59:08.531Z,3.47
2017-10-14T12:01:36.057Z,2.63
2017-10-14T12:04:03.633Z,3.27
2017-10-14T12:06:31.166Z,2.30
2017-10-14T12:08:58.702Z,2.70
2017-10-14T12:11:26.227Z,2.67
2017-10-14T12:13:53.760Z,2.57
2017-10-14T12:16:21.599Z,2.10
2017-10-14T12:18:49.120Z,2.50
2017-10-14T12:21:17.466Z,2.60
2017-10-14T12:23:45.038Z,2.17
2017-10-14T12:26:12.549Z,2.20
2017-10-14T12:28:40.160Z,2.10
2017-10-14T12:31:07.767Z,2.33
2017-10-14T12:33:35.355Z,2.63
2017-10-14T12:36:02.924Z,2.80
2017-10-14T12:38:30.473Z,2.23
2017-10-14T12:40:58.097Z,2.00
2017-10-14T12:43:26.381Z,2.50
2017-10-14T12:45:54.653Z,2.03
2017-10-14T12:48:22.976Z,2.43
2017-10-14T12:50:50.477Z,2.30
2017-10-14T12:53:18.299Z,3.00
2017-10-14T12:55:45.831Z,2.80
2017-10-14T12:58:14.134Z,2.73
2017-10-14T13:00:41.672Z,2.77
2017-10-14T13:03:09.199Z,2.70
2017-10-14T13:05:37.106Z,2.40
2017-10-14T13:08:04.638Z,2.40
2017-10-14T13:10:32.940Z,2.30
2017-10-14T13:13:00.478Z,2.10
2017-10-14T13:15:28.749Z,2.07
2017-10-14T13:17:56.686Z,3.00
2017-10-14T13:20:24.196Z,2.63
2017-10-14T13:22:52.489Z,2.43
2017-10-14T13:25:20.078Z,2.87
2017-10-14T13:27:47.585Z,2.80
2017-10-14T13:30:15.902Z,3.80
2017-10-14T13:32:43.403Z,3.00
2017-10-14T13:35:10.994Z,2.63
2017-10-14T13:37:39.325Z,2.63
2017-10-14T13:40:06.838Z,3.03
2017-10-14T13:42:35.166Z,2.93
2017-10-14T13:45:02.675Z,2.90
2017-10-14T13:47:30.200Z,3.20
2017-10-14T13:49:57.767Z,3.87
2017-10-14T13:52:25.268Z,3.43
2017-10-14T13:54:52.890Z,3.30
2017-10-14T13:57:20.402Z,3.80
2017-10-14T13:59:47.962Z,3.10
2017-10-14T14:02:15.485Z,3.93
2017-10-14T14:04:43.746Z,4.13
2017-10-14T14:07:11.308Z,9.67
2017-10-14T14:09:38.833Z,3.30
2017-10-14T14:12:06.354Z,3.40
2017-10-14T14:14:33.904Z,4.37
2017-10-14T14:17:02.162Z,3.80
2017-10-14T14:19:29.703Z,4.27
2017-10-14T14:21:57.214Z,3.00
2017-10-14T14:24:24.746Z,3.37
2017-10-14T14:26:52.287Z,3.63
2017-10-14T14:29:19.820Z,3.47
2017-10-14T14:31:47.625Z,3.43
2017-10-14T14:34:15.146Z,3.00
2017-10-14T14:36:42.764Z,4.23
2017-10-14T14:39:11.074Z,3.57
2017-10-14T14:41:38.573Z,3.70
2017-10-14T14:44:06.379Z,3.50
2017-10-14T14:46:34.672Z,3.40
2017-10-14T14:49:02.187Z,3.40
2017-10-14T14:51:33.123Z,3.50
2017-10-14T14:54:00.646Z,3.47
2017-10-14T14:56:28.188Z,4.37
2017-10-14T14:58:55.706Z,4.33
2017-10-14T15:01:23.215Z,4.53
2017-10-14T15:03:50.782Z,4.93
2017-10-14T15:06:18.319Z,6.50
2017-10-14T15:08:46.657Z,6.63
2017-10-14T15:11:14.179Z,5.60
2017-10-14T15:13:41.684Z,5.70
2017-10-14T15:16:09.254Z,6.97
2017-10-14T15:18:36.770Z,5.97
2017-10-14T15:21:04.326Z,4.87
2017-10-14T15:23:31.843Z,5.30
2017-10-14T15:26:00.123Z,5.20
2017-10-14T15:28:28.439Z,8.13
2017-10-14T15:30:56.002Z,6.83
2017-10-14T15:33:23.564Z,6.30
2017-10-14T15:35:51.093Z,6.90
2017-10-14T15:38:19.384Z,6.90
2017-10-14T15:40:46.962Z,6.30
2017-10-14T15:43:15.101Z,7.03
2017-10-14T15:45:43.420Z,5.60
2017-10-14T15:48:10.914Z,6.53
2017-10-14T15:50:39.258Z,7.50
2017-10-14T15:53:06.810Z,6.77
2017-10-14T15:55:34.333Z,6.73
2017-10-14T15:58:02.918Z,7.40
2017-10-14T16:00:31.305Z,8.43
2017-10-14T16:02:59.586Z,8.37
2017-10-14T16:05:27.894Z,7.73
2017-10-14T16:07:55.401Z,8.57
2017-10-14T16:10:22.992Z,7.90
2017-10-14T16:12:50.529Z,8.70
2017-10-14T16:15:18.827Z,8.50
2017-10-14T16:17:47.142Z,10.80
2017-10-14T16:20:14.671Z,11.00
2017-10-14T16:22:42.663Z,9.47
2017-10-14T16:25:10.215Z,9.97
2017-10-14T16:27:37.739Z,9.60
2017-10-14T16:30:06.064Z,8.83
2017-10-14T16:32:33.587Z,10.83
2017-10-14T16:35:01.943Z,10.77
2017-10-14T16:37:29.469Z,10.83
2017-10-14T16:39:57.006Z,12.30
2017-10-14T16:42:24.559Z,13.20
2017-10-14T16:44:52.119Z,14.90
2017-10-14T16:47:19.783Z,13.83
2017-10-14T16:49:47.304Z,14.90
2017-10-14T16:52:15.619Z,14.10
2017-10-14T16:54:43.167Z,14.50
2017-10-14T16:57:11.466Z,13.60
2017-10-14T16:59:39.057Z,15.80
2017-10-14T17:02:07.419Z,17.27
2017-10-14T17:04:34.951Z,18.00
2017-10-14T17:07:03.271Z,20.87
2017-10-14T17:09:30.837Z,27.13
2017-10-14T17:11:58.408Z,32.07
2017-10-14T17:14:25.939Z,37.63
2017-10-14T17:16:53.449Z,51.23
2017-10-14T17:19:21.034Z,57.13
2017-10-14T17:21:48.609Z,60.80
2017-10-14T17:24:16.998Z,47.73
2017-10-14T17:26:46.305Z,46.23
2017-10-14T17:29:13.900Z,43.87
2017-10-14T17:31:42.430Z,36.63
2017-10-14T17:34:10.826Z,33.23
2017-10-14T17:36:39.217Z,33.40
2017-10-14T17:39:07.225Z,33.80
2017-10-14T17:41:34.860Z,31.63
2017-10-14T17:44:02.561Z,29.50
2017-10-14T17:46:30.167Z,28.50
2017-10-14T17:48:57.828Z,30.90
2017-10-14T17:51:25.404Z,33.50
2017-10-14T17:53:53.112Z,38.17
2017-10-14T17:56:20.737Z,36.20
2017-10-14T17:58:48.312Z,37.80
2017-10-14T18:01:15.998Z,38.97
2017-10-14T18:03:44.287Z,45.10
2017-10-14T18:06:11.883Z,49.37
2017-10-14T18:08:39.427Z,49.50
2017-10-14T18:11:07.055Z,51.70
2017-10-14T18:13:34.774Z,49.97
2017-10-14T18:16:02.347Z,49.37
2017-10-14T18:18:29.895Z,52.40
2017-10-14T18:20:57.536Z,62.50
2017-10-14T18:23:25.955Z,62.87
2017-10-14T18:25:53.559Z,56.97
2017-10-14T18:28:21.126Z,50.77
2017-10-14T18:30:49.483Z,44.67
2017-10-14T18:33:17.884Z,39.60
2017-10-14T18:35:46.183Z,40.00
2017-10-14T18:38:13.740Z,37.80
2017-10-14T18:40:41.265Z,29.73
2017-10-14T18:43:08.850Z,29.90
2017-10-14T18:45:37.167Z,41.37
2017-10-14T18:48:04.689Z,60.87
2017-10-14T18:50:33.007Z,45.60
2017-10-14T18:53:00.645Z,36.27
2017-10-14T18:55:28.165Z,34.10
2017-10-14T18:57:55.712Z,32.77
2017-10-14T19:00:23.235Z,30.53
2017-10-14T19:02:50.786Z,34.50
2017-10-14T19:05:18.303Z,43.80
2017-10-14T19:07:45.820Z,46.53
2017-10-14T19:10:13.377Z,28.73
2017-10-14T19:12:40.916Z,21.60
2017-10-14T19:15:11.674Z,21.67
2017-10-14T19:17:39.227Z,20.80
2017-10-14T19:20:06.748Z,21.80
2017-10-14T19:22:34.331Z,19.40
2017-10-14T19:25:01.872Z,20.07
2017-10-14T19:27:30.204Z,20.00
2017-10-14T19:29:57.727Z,19.87
2017-10-14T19:32:26.003Z,19.20
2017-10-14T19:34:54.349Z,19.20
2017-10-14T19:37:22.772Z,21.87
2017-10-14T19:39:50.342Z,23.67
2017-10-14T19:42:17.881Z,21.50
2017-10-14T19:44:46.194Z,22.43
2017-10-14T19:47:13.725Z,23.50
2017-10-14T19:49:41.245Z,21.50
2017-10-14T19:52:08.815Z,23.10
2017-10-14T19:54:36.354Z,24.87
2017-10-14T19:57:03.902Z,24.03
2017-10-14T19:59:31.453Z,22.50
2017-10-14T20:01:59.016Z,24.40
2017-10-14T20:04:26.598Z,24.10
2017-10-14T20:06:54.135Z,23.57
2017-10-14T20:09:21.651Z,23.00
2017-10-14T20:11:49.997Z,22.00
2017-10-14T20:14:17.555Z,20.67
2017-10-14T20:16:45.124Z,22.37
2017-10-14T20:19:13.457Z,22.37
2017-10-14T20:21:40.983Z,22.80
2017-10-14T20:24:08.539Z,23.87
2017-10-14T20:26:36.105Z,23.10
2017-10-14T20:29:04.488Z,22.30
2017-10-14T20:31:32.055Z,21.17
2017-10-14T20:33:59.653Z,20.93
2017-10-14T20:36:27.207Z,20.93
2017-10-14T20:38:54.753Z,20.77
2017-10-14T20:41:22.329Z,19.23
2017-10-14T20:43:50.031Z,21.00
2017-10-14T20:46:17.695Z,21.47
2017-10-14T20:48:45.410Z,22.30
2017-10-14T20:51:13.064Z,21.80
2017-10-14T20:53:40.695Z,21.93
2017-10-14T20:56:09.030Z,22.93
2017-10-14T20:58:36.758Z,23.03
2017-10-14T21:01:04.408Z,21.17
2017-10-14T21:03:32.038Z,21.87
2017-10-14T21:05:59.764Z,21.97
2017-10-14T21:08:27.452Z,23.70
2017-10-14T21:10:55.094Z,24.23
2017-10-14T21:13:22.778Z,24.20
2017-10-14T21:15:50.312Z,23.47
2017-10-14T21:18:18.039Z,26.83
2017-10-14T21:20:45.894Z,24.57
2017-10-14T21:23:14.163Z,22.70
2017-10-14T21:25:41.880Z,24.77
2017-10-14T21:28:09.426Z,23.87
2017-10-14T21:30:37.905Z,22.83
2017-10-14T21:33:05.473Z,22.17
2017-10-14T21:35:33.888Z,24.67
2017-10-14T21:38:01.533Z,24.20
2017-10-14T21:40:29.133Z,24.77
2017-10-14T21:42:56.780Z,23.97
2017-10-14T21:45:24.333Z,23.40
2017-10-14T21:47:52.244Z,24.37
2017-10-14T21:50:20.683Z,21.87
2017-10-14T21:52:48.253Z,22.40
2017-10-14T21:55:15.946Z,21.33
2017-10-14T21:57:44.469Z,23.23
2017-10-14T22:00:12.061Z,21.70
2017-10-14T22:02:39.634Z,22.07
2017-10-14T22:05:07.163Z,21.53
2017-10-14T22:07:34.726Z,22.20
2017-10-14T22:10:02.241Z,22.57
2017-10-14T22:12:29.773Z,22.40
2017-10-14T22:14:57.332Z,19.57
2017-10-14T22:17:24.856Z,19.60
2017-10-14T22:19:53.450Z,20.37
2017-10-14T22:22:20.976Z,20.87
2017-10-14T22:24:48.492Z,20.27
2017-10-14T22:27:16.052Z,21.47
2017-10-14T22:29:43.581Z,19.80
2017-10-14T22:32:11.888Z,21.80
2017-10-14T22:34:39.392Z,20.80
2017-10-14T22:37:06.916Z,19.67
2017-10-14T22:39:34.481Z,21.20
2017-10-14T22:42:02.030Z,21.33
2017-10-14T22:44:29.637Z,21.97
2017-10-14T22:46:57.143Z,19.43
2017-10-14T22:49:24.658Z,19.70
2017-10-14T22:51:52.225Z,17.93
2017-10-14T22:54:19.747Z,17.60
2017-10-14T22:56:47.288Z,18.30
2017-10-14T22:59:14.803Z,17.37
2017-10-14T23:01:42.340Z,14.93
2017-10-14T23:04:10.494Z,16.90
2017-10-14T23:06:38.029Z,15.27
2017-10-14T23:09:05.582Z,15.77
2017-10-14T23:11:33.106Z,14.37
2017-10-14T23:14:00.646Z,15.33
2017-10-14T23:16:28.207Z,14.53
2017-10-14T23:18:55.722Z,14.67
2017-10-14T23:21:23.550Z,14.47
2017-10-14T23:23:51.078Z,14.53
2017-10-14T23:26:18.601Z,15.60
2017-10-14T23:28:46.158Z,16.27
2017-10-14T23:31:14.441Z,16.13
2017-10-14T23:33:42.786Z,16.37
2017-10-14T23:36:10.395Z,15.70
2017-10-14T23:38:37.922Z,15.70
2017-10-14T23:41:05.479Z,14.60
2017-10-14T23:43:33.011Z,14.67
2017-10-14T23:46:00.563Z,14.47
2017-10-14T23:48:28.072Z,15.73
2017-10-14T23:50:56.370Z,16.23
2017-10-14T23:53:23.908Z,15.90
2017-10-14T23:55:52.188Z,16.07
2017-10-14T23:58:20.516Z,16.10
